createdAt,value
2019-05-20T00:00:26.333Z,4.67
2019-05-20T00:02:55.782Z,4.70
2019-05-20T00:05:26.386Z,5.30
2019-05-20T00:07:57.150Z,6.13
2019-05-20T00:10:27.517Z,5.20
2019-05-20T00:12:57.777Z,5.57
2019-05-20T00:15:28.079Z,4.40
2019-05-20T00:18:14.496Z,5.43
2019-05-20T00:20:59.171Z,4.90
2019-05-20T00:23:48.486Z,7.13
2019-05-20T00:26:18.862Z,4.60
2019-05-20T00:28:50.223Z,4.80
2019-05-20T00:31:20.916Z,5.53
2019-05-20T00:34:02.960Z,5.10
2019-05-20T00:36:44.207Z,6.47
2019-05-20T00:39:29.146Z,4.40
2019-05-20T00:50:14.029Z,4.27
2019-05-20T00:52:52.127Z,4.40
2019-05-20T00:55:43.520Z,5.57
2019-05-20T00:58:15.513Z,4.40
2019-05-20T01:00:45.853Z,4.90
2019-05-20T01:03:16.090Z,4.20
2019-05-20T01:05:47.720Z,5.50
2019-05-20T01:08:17.707Z,4.80
2019-05-20T01:10:47.757Z,4.60
2019-05-20T01:13:17.829Z,4.50
2019-05-20T01:15:50.368Z,5.27
2019-05-20T01:18:20.460Z,4.60
2019-05-20T01:20:50.522Z,4.60
2019-05-20T01:23:22.920Z,4.73
2019-05-20T01:25:57.402Z,5.43
2019-05-20T01:28:27.798Z,4.40
2019-05-20T01:30:58.360Z,4.80
2019-05-20T01:33:33.008Z,4.80
2019-05-20T01:38:47.237Z,8.57
2019-05-20T01:41:17.624Z,4.47
2019-05-20T01:43:47.615Z,5.00
2019-05-20T01:46:17.569Z,5.50
2019-05-20T01:48:57.155Z,5.40
2019-05-20T01:51:28.840Z,4.90
2019-05-20T01:54:00.732Z,5.10
2019-05-20T01:56:31.273Z,4.80
2019-05-20T01:59:01.786Z,5.83
2019-05-20T02:01:32.256Z,5.00
2019-05-20T02:20:46.686Z,5.27
2019-05-20T02:23:24.960Z,4.93
2019-05-20T02:25:55.608Z,6.43
2019-05-20T02:28:26.556Z,5.00
2019-05-20T02:31:04.877Z,4.73
2019-05-20T02:33:50.905Z,5.83
2019-05-20T02:36:10.414Z,5.00
2019-05-20T02:41:23.548Z,7.70
2019-05-20T02:43:53.644Z,5.10
2019-05-20T02:46:27.687Z,5.70
2019-05-20T02:48:57.719Z,5.33
2019-05-20T02:51:33.404Z,5.97
2019-05-20T02:54:04.230Z,5.93
2019-05-20T02:56:33.935Z,5.43
2019-05-20T02:59:03.570Z,6.23
2019-05-20T03:01:33.286Z,5.73
2019-05-20T03:04:11.694Z,5.77
2019-05-20T03:06:41.553Z,6.20
2019-05-20T03:09:12.590Z,5.30
2019-05-20T03:11:43.486Z,6.10
2019-05-20T03:14:13.869Z,6.20
2019-05-20T03:19:21.743Z,6.53
2019-05-20T03:21:52.648Z,5.43
2019-05-20T03:24:28.385Z,5.90
2019-05-20T03:26:58.503Z,5.33
2019-05-20T03:29:29.368Z,6.23
2019-05-20T03:32:04.658Z,7.10
2019-05-20T03:34:48.699Z,5.30
2019-05-20T03:37:07.525Z,5.80
2019-05-20T03:39:39.369Z,5.30
2019-05-20T03:42:13.817Z,5.80
2019-05-20T03:44:44.232Z,6.10
2019-05-20T03:47:14.834Z,6.40
2019-05-20T03:49:45.214Z,5.40
2019-05-20T03:52:18.040Z,7.43
2019-05-20T03:54:48.488Z,6.00
2019-05-20T03:57:18.505Z,7.80
2019-05-20T03:59:48.914Z,5.40
2019-05-20T04:02:19.167Z,6.80
2019-05-20T04:05:01.267Z,7.13
2019-05-20T04:10:17.865Z,6.47
2019-05-20T04:12:47.696Z,6.33
2019-05-20T04:15:18.637Z,6.00
2019-05-20T04:17:48.455Z,6.93
2019-05-20T04:20:18.232Z,6.47
2019-05-20T04:22:50.439Z,7.40
2019-05-20T04:25:21.970Z,7.33
2019-05-20T04:27:53.470Z,6.40
2019-05-20T04:30:23.708Z,6.77
2019-05-20T04:32:56.226Z,7.00
2019-05-20T04:35:26.459Z,6.97
2019-05-20T04:37:56.477Z,8.43
2019-05-20T04:40:26.856Z,5.83
2019-05-20T04:43:03.686Z,7.27
2019-05-20T04:45:33.348Z,6.73
2019-05-20T04:48:03.965Z,6.73
2019-05-20T04:50:34.357Z,8.13
2019-05-20T04:53:06.263Z,8.47
2019-05-20T04:55:36.233Z,8.00
2019-05-20T04:58:05.873Z,8.20
2019-05-20T05:01:00.800Z,8.53
2019-05-20T05:03:30.870Z,7.00
2019-05-20T05:06:04.258Z,7.20
2019-05-20T05:08:38.311Z,8.73
2019-05-20T05:11:12.443Z,7.77
2019-05-20T05:13:42.412Z,7.80
2019-05-20T05:16:12.773Z,7.37
2019-05-20T05:18:44.619Z,8.00
2019-05-20T05:21:17.639Z,8.40
2019-05-20T05:26:30.929Z,8.57
2019-05-20T05:29:09.605Z,8.40
2019-05-20T05:31:39.649Z,8.40
2019-05-20T05:34:09.819Z,7.27
2019-05-20T05:36:39.789Z,7.53
2019-05-20T05:39:10.502Z,8.20
2019-05-20T05:41:42.443Z,8.37
2019-05-20T05:44:12.919Z,7.67
2019-05-20T05:46:44.991Z,7.93
2019-05-20T05:49:19.705Z,8.20
2019-05-20T05:51:53.758Z,9.13
2019-05-20T05:55:13.713Z,8.97
2019-05-20T06:01:53.402Z,7.40
2019-05-20T06:04:24.472Z,8.70
2019-05-20T06:07:02.051Z,9.97
2019-05-20T06:09:34.593Z,13.37
2019-05-20T06:12:04.853Z,10.70
2019-05-20T06:14:35.626Z,12.33
2019-05-20T06:17:05.212Z,11.63
2019-05-20T06:19:35.073Z,10.83
2019-05-20T06:22:04.806Z,10.63
2019-05-20T06:24:38.819Z,12.00
2019-05-20T06:27:08.317Z,11.90
2019-05-20T06:29:38.837Z,12.40
2019-05-20T06:32:09.230Z,13.70
2019-05-20T06:34:42.194Z,15.63
2019-05-20T06:37:16.877Z,13.70
2019-05-20T06:42:43.977Z,14.70
2019-05-20T06:46:32.121Z,15.77
2019-05-20T06:49:03.676Z,17.43
2019-05-20T07:26:50.062Z,16.33
2019-05-20T07:29:19.890Z,16.80
2019-05-20T07:31:49.945Z,15.90
2019-05-20T07:34:42.094Z,15.93
2019-05-20T07:37:16.565Z,18.17
2019-05-20T07:39:48.136Z,17.73
2019-05-20T07:42:21.732Z,15.43
2019-05-20T07:44:51.813Z,17.17
2019-05-20T07:47:22.427Z,16.47
2019-05-20T07:49:54.592Z,15.30
2019-05-20T07:52:25.301Z,17.33
2019-05-20T07:54:56.511Z,16.77
2019-05-20T07:57:28.588Z,15.37
2019-05-20T07:59:58.880Z,17.67
2019-05-20T08:02:29.397Z,16.80
2019-05-20T08:05:02.606Z,15.20
2019-05-20T08:07:50.251Z,16.47
2019-05-20T08:10:06.642Z,16.77
2019-05-20T08:12:36.967Z,17.40
2019-05-20T08:18:03.233Z,16.70
2019-05-20T08:20:37.457Z,15.17
2019-05-20T08:23:08.802Z,17.03
2019-05-20T08:25:38.941Z,17.93
2019-05-20T08:28:09.006Z,15.67
2019-05-20T08:30:39.801Z,17.90
2019-05-20T08:33:10.296Z,18.87
2019-05-20T08:35:39.923Z,18.10
2019-05-20T08:38:09.649Z,19.30
2019-05-20T08:40:40.258Z,19.30
2019-05-20T08:43:13.495Z,16.83
2019-05-20T08:45:43.682Z,17.00
2019-05-20T08:48:17.828Z,18.40
2019-05-20T08:50:48.262Z,18.73
2019-05-20T08:53:19.803Z,18.90
2019-05-20T08:55:49.839Z,19.70
2019-05-20T08:58:22.359Z,17.50
2019-05-20T09:00:58.237Z,21.07
2019-05-20T09:03:30.360Z,19.60
2019-05-20T09:06:01.590Z,18.03
2019-05-20T09:08:31.833Z,18.70
2019-05-20T09:11:01.981Z,19.30
2019-05-20T09:16:07.340Z,21.90
2019-05-20T09:18:37.536Z,18.10
2019-05-20T09:21:07.439Z,18.60
2019-05-20T09:23:41.544Z,19.43
2019-05-20T09:26:11.408Z,20.50
2019-05-20T09:28:41.586Z,17.80
2019-05-20T09:31:19.034Z,23.33
2019-05-20T09:36:30.270Z,18.10
2019-05-20T09:39:01.673Z,20.73
2019-05-20T09:41:32.445Z,18.90
2019-05-20T09:44:02.339Z,21.57
2019-05-20T09:46:33.162Z,19.83
2019-05-20T09:49:04.458Z,22.07
2019-05-20T09:51:38.578Z,19.20
2019-05-20T09:54:08.521Z,19.70
2019-05-20T09:56:38.772Z,20.20
2019-05-20T09:59:09.177Z,19.67
2019-05-20T10:01:39.952Z,20.80
2019-05-20T10:04:14.945Z,22.70
2019-05-20T10:06:45.133Z,18.97
2019-05-20T10:09:14.821Z,22.70
2019-05-20T10:11:44.195Z,20.43
2019-05-20T10:14:13.503Z,18.67
2019-05-20T10:16:43.045Z,21.27
2019-05-20T10:24:22.979Z,22.00
2019-05-20T10:26:54.856Z,20.57
2019-05-20T10:29:24.844Z,22.23
2019-05-20T10:31:55.322Z,26.67
2019-05-20T10:34:25.801Z,22.97
2019-05-20T10:37:03.412Z,24.97
2019-05-20T10:45:53.635Z,25.60
2019-05-20T10:48:23.731Z,28.70
2019-05-20T10:50:53.035Z,28.57
2019-05-20T10:53:23.324Z,34.10
2019-05-20T10:55:53.074Z,30.40
2019-05-20T10:58:23.171Z,29.13
2019-05-20T11:01:02.259Z,29.03
2019-05-20T11:03:24.207Z,28.30
2019-05-20T11:05:54.112Z,29.50
2019-05-20T11:08:23.635Z,28.73
2019-05-20T11:10:53.181Z,33.83
2019-05-20T11:13:22.873Z,30.77
2019-05-20T11:15:52.696Z,28.27
2019-05-20T11:18:22.503Z,32.33
2019-05-20T11:20:52.401Z,29.20
2019-05-20T11:23:31.116Z,27.70
2019-05-20T11:26:01.713Z,29.80
2019-05-20T11:28:32.675Z,27.63
2019-05-20T11:31:03.167Z,29.43
2019-05-20T11:33:33.215Z,31.60
2019-05-20T11:36:02.864Z,30.00
2019-05-20T11:38:33.218Z,28.67
2019-05-20T11:41:03.091Z,29.23
2019-05-20T11:43:33.248Z,31.60
2019-05-20T11:46:03.578Z,28.43
2019-05-20T11:48:33.297Z,29.50
2019-05-20T11:51:02.567Z,31.00
2019-05-20T11:53:32.195Z,28.20
2019-05-20T11:56:03.439Z,28.57
2019-05-20T11:58:33.270Z,28.37
2019-05-20T12:01:03.569Z,28.93
2019-05-20T12:03:35.373Z,30.60
2019-05-20T12:06:05.738Z,29.90
2019-05-20T12:08:35.527Z,26.33
2019-05-20T12:11:18.710Z,30.33
2019-05-20T12:13:59.177Z,26.80
2019-05-20T12:24:19.867Z,25.70
2019-05-20T12:26:49.845Z,25.00
2019-05-20T12:29:19.767Z,30.37
2019-05-20T12:31:52.976Z,27.67
2019-05-20T12:34:23.028Z,29.07
2019-05-20T12:36:52.931Z,26.63
2019-05-20T12:39:23.299Z,30.37
2019-05-20T12:41:53.554Z,33.23
2019-05-20T12:44:24.562Z,30.23
2019-05-20T12:46:54.674Z,31.87
2019-05-20T12:49:24.648Z,33.33
2019-05-20T12:51:56.466Z,34.10
2019-05-20T13:01:30.463Z,36.07
2019-05-20T13:04:00.615Z,32.10
2019-05-20T13:06:31.541Z,30.70
2019-05-20T13:09:02.520Z,36.17
2019-05-20T13:11:32.206Z,33.60
2019-05-20T13:14:02.252Z,35.30
2019-05-20T13:16:32.308Z,34.77
2019-05-20T13:19:02.775Z,35.50
2019-05-20T13:21:34.575Z,34.73
2019-05-20T13:24:04.199Z,36.20
2019-05-20T13:26:36.918Z,34.60
2019-05-20T13:29:06.674Z,35.70
2019-05-20T13:31:36.296Z,35.10
2019-05-20T13:34:06.052Z,36.87
2019-05-20T13:36:36.097Z,34.97
2019-05-20T13:39:07.569Z,34.57
2019-05-20T13:41:37.406Z,35.17
2019-05-20T13:44:07.005Z,37.40
2019-05-20T13:46:36.904Z,38.40
2019-05-20T13:49:06.731Z,39.77
2019-05-20T13:51:38.766Z,37.90
2019-05-20T13:54:09.019Z,39.40
2019-05-20T13:56:38.980Z,40.63
2019-05-20T13:59:09.547Z,37.97
2019-05-20T14:01:40.314Z,37.23
2019-05-20T14:04:12.114Z,38.00
2019-05-20T14:06:44.515Z,37.80
2019-05-20T14:09:14.875Z,38.53
2019-05-20T14:16:56.688Z,33.67
2019-05-20T14:19:26.184Z,37.57
2019-05-20T14:21:56.153Z,39.27
2019-05-20T14:24:25.955Z,37.07
2019-05-20T14:26:56.343Z,36.47
2019-05-20T14:29:26.166Z,36.47
2019-05-20T14:31:56.279Z,36.63
2019-05-20T14:34:26.281Z,37.00
2019-05-20T14:36:56.496Z,32.70
2019-05-20T14:39:26.225Z,36.00
2019-05-20T14:41:56.381Z,39.83
2019-05-20T14:44:26.492Z,36.33
2019-05-20T14:46:56.299Z,37.80
2019-05-20T14:49:26.473Z,36.30
2019-05-20T14:51:56.893Z,36.83
2019-05-20T14:54:27.041Z,34.97
2019-05-20T14:56:57.178Z,36.20
2019-05-20T14:59:27.081Z,36.83
2019-05-20T15:01:58.524Z,35.23
2019-05-20T15:04:33.605Z,30.83
2019-05-20T15:07:03.708Z,32.47
2019-05-20T15:09:35.707Z,29.13
2019-05-20T15:12:05.534Z,32.30
2019-05-20T15:14:37.837Z,31.43
2019-05-20T15:17:07.861Z,32.67
2019-05-20T15:19:38.135Z,33.70
2019-05-20T15:22:08.486Z,31.03
2019-05-20T15:24:38.897Z,32.27
2019-05-20T15:27:08.697Z,30.20
2019-05-20T15:29:38.231Z,32.97
2019-05-20T15:32:08.543Z,31.73
2019-05-20T15:34:38.558Z,31.23
2019-05-20T15:37:08.270Z,30.20
2019-05-20T15:39:38.273Z,30.60
2019-05-20T15:52:28.904Z,25.57
2019-05-20T15:55:23.532Z,27.83
2019-05-20T16:05:31.586Z,27.17
2019-05-20T16:08:04.781Z,28.90
2019-05-20T16:10:38.562Z,30.57
2019-05-20T16:13:12.489Z,29.73
2019-05-20T16:15:42.140Z,32.20
2019-05-20T16:18:11.939Z,29.30
2019-05-20T16:20:42.051Z,33.10
2019-05-20T16:23:21.645Z,32.63
2019-05-20T16:31:05.080Z,34.63
2019-05-20T16:33:34.673Z,32.33
2019-05-20T16:36:04.587Z,33.97
2019-05-20T16:38:35.475Z,34.17
2019-05-20T16:41:05.059Z,35.53
2019-05-20T16:43:35.654Z,33.23
2019-05-20T16:46:05.344Z,36.90
2019-05-20T16:48:38.376Z,33.37
2019-05-20T16:51:08.578Z,36.07
2019-05-20T16:53:38.521Z,32.43
2019-05-20T16:56:08.766Z,33.73
2019-05-20T16:58:38.688Z,34.17
2019-05-20T17:01:08.576Z,38.40
2019-05-20T17:03:38.242Z,36.33
2019-05-20T17:06:08.252Z,34.83
2019-05-20T17:08:37.863Z,34.90
2019-05-20T17:11:07.883Z,34.90
2019-05-20T17:13:37.492Z,35.20
2019-05-20T17:16:07.027Z,34.57
2019-05-20T17:30:05.943Z,37.63
2019-05-20T17:33:53.851Z,37.60
2019-05-20T17:50:58.339Z,38.23
2019-05-20T17:54:43.830Z,33.60
2019-05-20T17:57:40.624Z,31.97
2019-05-20T18:07:29.160Z,34.93
2019-05-20T18:09:59.736Z,38.40
2019-05-20T18:12:29.865Z,28.70
2019-05-20T18:15:01.175Z,39.63
2019-05-20T18:17:31.190Z,34.00
2019-05-20T18:20:00.636Z,36.37
2019-05-20T18:22:30.735Z,33.00
2019-05-20T18:25:00.935Z,37.57
2019-05-20T18:27:30.889Z,36.10
2019-05-20T18:30:01.361Z,37.17
2019-05-20T18:32:31.627Z,42.03
2019-05-20T18:35:01.717Z,42.63
2019-05-20T18:37:31.466Z,43.50
2019-05-20T18:40:13.181Z,48.60
2019-05-20T18:42:32.227Z,48.03
2019-05-20T18:45:02.267Z,52.97
2019-05-20T18:47:32.335Z,51.37
2019-05-20T18:50:03.307Z,52.83
2019-05-20T18:52:33.778Z,62.87
2019-05-20T18:55:03.584Z,63.17
2019-05-20T18:57:36.192Z,58.63
2019-05-20T19:00:08.703Z,63.13
2019-05-20T19:02:39.080Z,68.60
2019-05-20T19:05:09.251Z,68.90
2019-05-20T19:07:38.809Z,69.83
2019-05-20T19:10:10.157Z,67.03
2019-05-20T19:12:39.858Z,65.00
2019-05-20T19:15:10.911Z,65.40
2019-05-20T19:17:40.436Z,66.43
2019-05-20T19:20:10.189Z,67.60
2019-05-20T19:22:40.047Z,67.40
2019-05-20T19:25:09.979Z,76.37
2019-05-20T19:27:39.546Z,67.37
2019-05-20T19:41:26.432Z,69.37
2019-05-20T19:43:56.816Z,71.20
2019-05-20T19:46:38.891Z,69.10
2019-05-20T19:49:52.100Z,69.57
2019-05-20T20:01:24.193Z,69.87
2019-05-20T20:04:03.399Z,69.47
2019-05-20T20:06:49.968Z,67.20
2019-05-20T20:12:33.097Z,60.03
2019-05-20T20:15:16.701Z,59.60
2019-05-20T20:20:54.913Z,52.93
2019-05-20T20:23:33.321Z,52.37
2019-05-20T20:26:09.669Z,47.03
2019-05-20T20:28:41.524Z,48.73
2019-05-20T20:31:15.071Z,54.10
2019-05-20T20:34:02.745Z,54.00
2019-05-20T20:36:32.631Z,58.03
2019-05-20T20:39:02.671Z,64.43
2019-05-20T20:41:37.469Z,61.87
2019-05-20T20:44:12.445Z,59.43
2019-05-20T20:46:45.265Z,64.83
2019-05-20T20:58:13.210Z,63.30
2019-05-20T21:00:43.465Z,66.83
2019-05-20T21:03:45.177Z,65.33
2019-05-20T21:06:18.783Z,67.53
2019-05-20T21:08:51.810Z,60.90
2019-05-20T21:11:31.384Z,57.93
2019-05-20T21:14:27.213Z,67.50
2019-05-20T21:16:57.974Z,58.03
2019-05-20T21:19:41.285Z,61.67
2019-05-20T21:22:12.267Z,58.27
2019-05-20T21:25:15.932Z,56.03
2019-05-20T21:28:09.574Z,46.57
2019-05-20T21:30:48.080Z,48.93
2019-05-20T21:33:38.800Z,45.83
2019-05-20T21:36:09.600Z,46.13
2019-05-20T21:38:52.386Z,45.60
2019-05-20T21:41:25.966Z,46.03
2019-05-20T21:59:46.205Z,40.70
2019-05-20T22:02:16.965Z,38.93
2019-05-20T22:04:57.342Z,32.97
2019-05-20T22:07:28.142Z,31.87
2019-05-20T22:10:02.525Z,32.47
2019-05-20T22:12:36.673Z,32.83
2019-05-20T22:15:07.303Z,29.20
2019-05-20T22:17:43.308Z,28.23
2019-05-20T22:20:15.092Z,28.80
2019-05-20T22:22:54.921Z,27.63
2019-05-20T22:25:30.092Z,28.60
2019-05-20T22:28:01.638Z,28.80
2019-05-20T22:30:31.699Z,30.97
2019-05-20T22:33:03.145Z,31.30
2019-05-20T22:35:38.293Z,31.20
2019-05-20T22:38:08.649Z,27.83
2019-05-20T22:40:50.325Z,28.27
2019-05-20T22:43:38.862Z,24.43
2019-05-20T22:46:10.147Z,23.00
2019-05-20T22:48:41.052Z,21.10
2019-05-20T22:51:14.634Z,20.47
2019-05-20T22:53:47.019Z,14.97
2019-05-20T22:56:17.067Z,15.73
2019-05-20T22:58:47.186Z,12.50
2019-05-20T23:01:22.056Z,13.80
2019-05-20T23:04:03.899Z,13.73
2019-05-20T23:06:38.029Z,12.20
2019-05-20T23:09:10.826Z,13.90
2019-05-20T23:11:44.028Z,11.77
2019-05-20T23:19:35.338Z,12.70
2019-05-20T23:22:05.588Z,13.43
2019-05-20T23:24:37.802Z,12.03
2019-05-20T23:27:14.873Z,15.00
2019-05-20T23:29:46.132Z,13.10
2019-05-20T23:32:16.714Z,12.20
2019-05-20T23:34:46.844Z,12.47
2019-05-20T23:37:25.333Z,11.97
2019-05-20T23:39:56.161Z,12.63
2019-05-20T23:42:27.207Z,11.03
2019-05-20T23:45:00.925Z,12.40
2019-05-20T23:47:34.579Z,12.00
2019-05-20T23:50:04.530Z,11.07
2019-05-20T23:52:34.888Z,15.03
2019-05-20T23:55:07.167Z,13.50
2019-05-20T23:57:37.623Z,11.83
